createdAt,value
2023-01-12T00:00:05.573Z,8.35
2023-01-12T00:02:42.204Z,8.61
2023-01-12T00:05:15.344Z,8.70
2023-01-12T00:07:44.969Z,8.68
2023-01-12T00:10:14.656Z,8.62
2023-01-12T00:12:44.321Z,8.32
2023-01-12T00:15:14.426Z,8.86
2023-01-12T00:17:44.085Z,8.85
2023-01-12T00:20:16.721Z,8.79
2023-01-12T00:22:47.912Z,8.75
2023-01-12T00:25:17.646Z,8.79
2023-01-12T00:27:47.295Z,8.84
2023-01-12T00:30:17.083Z,8.89
2023-01-12T00:32:46.754Z,8.86
2023-01-12T00:35:19.265Z,8.80
2023-01-12T00:37:48.940Z,8.81
2023-01-12T00:40:18.943Z,8.97
2023-01-12T00:43:01.111Z,9.03
2023-01-12T00:45:30.848Z,9.05
2023-01-12T00:48:00.473Z,9.03
2023-01-12T00:50:32.792Z,9.17
2023-01-12T00:53:02.435Z,9.16
2023-01-12T00:55:32.123Z,8.99
2023-01-12T00:58:01.935Z,9.13
2023-01-12T01:00:31.619Z,9.20
2023-01-12T01:03:01.516Z,9.18
2023-01-12T01:05:33.812Z,9.25
2023-01-12T01:08:03.490Z,9.20
2023-01-12T01:10:33.102Z,9.16
2023-01-12T01:13:02.739Z,9.25
2023-01-12T01:15:32.425Z,8.98
2023-01-12T01:18:02.113Z,9.21
2023-01-12T01:20:36.471Z,9.25
2023-01-12T01:23:06.101Z,8.99
2023-01-12T01:25:35.902Z,9.18
2023-01-12T01:28:05.583Z,9.17
2023-01-12T01:30:35.264Z,9.23
2023-01-12T01:33:05.003Z,9.18
2023-01-12T01:35:38.253Z,9.17
2023-01-12T01:38:08.745Z,9.17
2023-01-12T01:40:44.201Z,9.19
2023-01-12T01:43:17.049Z,9.18
2023-01-12T01:45:50.513Z,9.17
2023-01-12T01:48:20.814Z,9.09
2023-01-12T01:50:59.959Z,9.20
2023-01-12T01:53:36.230Z,9.15
2023-01-12T01:56:10.154Z,8.99
2023-01-12T01:58:43.611Z,8.91
2023-01-12T02:01:13.748Z,8.99
2023-01-12T02:03:44.578Z,9.04
2023-01-12T02:06:18.105Z,9.20
2023-01-12T02:08:52.656Z,9.15
2023-01-12T02:11:34.967Z,9.06
2023-01-12T02:14:17.207Z,9.06
2023-01-12T02:16:59.710Z,8.88
2023-01-12T02:19:56.656Z,9.14
2023-01-12T02:22:52.602Z,9.00
2023-01-12T02:25:50.173Z,9.14
2023-01-12T02:28:49.173Z,9.13
2023-01-12T02:31:42.861Z,8.98
2023-01-12T02:34:24.551Z,9.18
2023-01-12T02:37:04.293Z,9.08
2023-01-12T02:39:40.854Z,9.04
2023-01-12T02:42:31.266Z,9.04
2023-01-12T02:45:09.824Z,9.18
2023-01-12T02:47:48.626Z,9.16
2023-01-12T02:50:26.991Z,8.95
2023-01-12T02:53:02.306Z,9.07
2023-01-12T02:55:33.282Z,9.03
2023-01-12T02:58:05.658Z,9.16
2023-01-12T03:00:38.294Z,9.04
2023-01-12T03:03:11.795Z,9.12
2023-01-12T03:05:42.774Z,9.18
2023-01-12T03:08:14.162Z,9.07
2023-01-12T03:11:02.702Z,9.20
2023-01-12T03:13:36.314Z,9.07
2023-01-12T03:16:09.067Z,9.20
2023-01-12T03:18:47.153Z,9.12
2023-01-12T03:21:23.847Z,9.16
2023-01-12T03:23:59.540Z,8.94
2023-01-12T03:26:31.550Z,9.13
2023-01-12T03:29:07.056Z,9.19
2023-01-12T03:31:37.213Z,9.26
2023-01-12T03:34:09.757Z,9.33
2023-01-12T03:36:48.933Z,9.27
2023-01-12T03:39:28.369Z,9.20
2023-01-12T03:42:04.273Z,9.25
2023-01-12T03:44:41.479Z,9.22
2023-01-12T03:47:17.019Z,9.12
2023-01-12T03:49:53.555Z,9.12
2023-01-12T03:52:25.310Z,9.09
2023-01-12T03:54:58.085Z,9.20
2023-01-12T03:57:28.898Z,9.30
2023-01-12T04:00:00.261Z,9.14
2023-01-12T04:02:30.002Z,9.18
2023-01-12T04:05:02.235Z,9.02
2023-01-12T04:07:31.897Z,9.20
2023-01-12T04:10:01.541Z,9.20
2023-01-12T04:12:31.233Z,9.22
2023-01-12T04:15:00.979Z,9.32
2023-01-12T04:17:30.663Z,9.22
2023-01-12T04:20:02.868Z,9.21
2023-01-12T04:22:44.919Z,9.22
2023-01-12T04:25:16.096Z,9.12
2023-01-12T04:27:49.180Z,9.21
2023-01-12T04:30:23.539Z,9.24
2023-01-12T04:32:54.019Z,9.25
2023-01-12T04:35:27.710Z,9.22
2023-01-12T04:37:57.425Z,9.26
2023-01-12T04:40:27.576Z,9.42
2023-01-12T04:43:08.014Z,9.35
2023-01-12T04:45:39.947Z,9.27
2023-01-12T04:48:11.991Z,9.28
2023-01-12T04:50:45.690Z,9.20
2023-01-12T04:53:15.811Z,9.22
2023-01-12T04:55:46.428Z,9.18
2023-01-12T04:58:16.058Z,9.18
2023-01-12T05:00:45.842Z,9.31
2023-01-12T05:03:16.613Z,9.27
2023-01-12T05:05:48.873Z,9.28
2023-01-12T05:08:31.043Z,9.23
2023-01-12T05:11:02.869Z,9.36
2023-01-12T05:13:34.100Z,9.27
2023-01-12T05:16:11.827Z,9.33
2023-01-12T05:18:41.566Z,9.05
2023-01-12T05:21:13.899Z,9.32
2023-01-12T05:23:43.635Z,9.49
2023-01-12T05:26:14.027Z,9.36
2023-01-12T05:28:44.075Z,9.19
2023-01-12T05:31:16.443Z,9.31
2023-01-12T05:33:46.384Z,9.36
2023-01-12T05:36:20.595Z,9.43
2023-01-12T05:38:50.300Z,9.37
2023-01-12T05:41:21.508Z,9.37
2023-01-12T05:43:51.875Z,9.33
2023-01-12T05:46:23.756Z,9.24
2023-01-12T05:48:55.269Z,9.31
2023-01-12T05:51:30.957Z,9.36
2023-01-12T05:54:00.816Z,9.38
2023-01-12T05:56:32.928Z,9.24
2023-01-12T05:59:04.442Z,9.27
2023-01-12T06:01:34.870Z,9.26
2023-01-12T06:04:04.812Z,9.29
2023-01-12T06:06:37.089Z,9.21
2023-01-12T06:09:06.815Z,9.09
2023-01-12T06:11:48.975Z,9.19
2023-01-12T06:14:18.633Z,9.14
2023-01-12T06:16:48.356Z,9.17
2023-01-12T06:19:18.007Z,9.14
2023-01-12T06:21:50.290Z,9.24
2023-01-12T06:24:19.886Z,9.23
2023-01-12T06:26:49.579Z,9.25
2023-01-12T06:29:19.235Z,9.23
2023-01-12T06:31:48.919Z,9.15
2023-01-12T06:34:18.574Z,9.33
2023-01-12T06:36:50.842Z,9.02
2023-01-12T06:39:20.727Z,9.39
2023-01-12T06:42:02.885Z,9.23
2023-01-12T06:44:32.510Z,9.25
2023-01-12T06:47:04.528Z,9.16
2023-01-12T06:49:34.206Z,9.26
2023-01-12T06:52:06.657Z,9.15
2023-01-12T06:54:36.321Z,9.22
2023-01-12T06:57:06.178Z,9.16
2023-01-12T06:59:37.656Z,9.19
2023-01-12T07:02:08.932Z,9.15
2023-01-12T07:04:38.736Z,9.05
2023-01-12T07:07:12.262Z,9.20
2023-01-12T07:09:41.995Z,9.14
2023-01-12T07:12:11.768Z,9.17
2023-01-12T07:14:41.454Z,9.12
2023-01-12T07:17:12.695Z,9.10
2023-01-12T07:19:43.378Z,8.97
2023-01-12T07:22:15.636Z,8.95
2023-01-12T07:24:45.323Z,9.01
2023-01-12T07:27:15.190Z,8.87
2023-01-12T07:29:46.617Z,8.70
2023-01-12T07:32:16.252Z,8.79
2023-01-12T07:34:45.899Z,8.89
2023-01-12T07:37:18.141Z,8.88
2023-01-12T07:39:47.794Z,8.46
2023-01-12T07:42:26.585Z,8.82
2023-01-12T07:44:56.286Z,8.78
2023-01-12T07:47:27.824Z,8.73
2023-01-12T07:49:57.469Z,8.82
2023-01-12T07:52:29.743Z,8.80
2023-01-12T07:54:59.708Z,8.73
2023-01-12T07:57:29.498Z,8.52
2023-01-12T07:59:59.115Z,8.66
2023-01-12T08:02:28.814Z,8.70
2023-01-12T08:04:58.476Z,8.63
2023-01-12T08:07:30.710Z,8.75
2023-01-12T08:10:00.362Z,8.75
2023-01-12T08:12:32.642Z,8.66
2023-01-12T08:15:03.928Z,8.70
2023-01-12T08:17:39.966Z,8.92
2023-01-12T08:20:13.587Z,8.88
2023-01-12T08:22:51.668Z,8.57
2023-01-12T08:25:26.822Z,8.89
2023-01-12T08:28:00.417Z,8.85
2023-01-12T08:30:31.291Z,8.64
2023-01-12T08:33:03.552Z,8.82
2023-01-12T08:35:37.205Z,8.62
2023-01-12T08:38:10.352Z,8.75
2023-01-12T08:40:52.581Z,8.68
2023-01-12T08:43:42.232Z,8.80
2023-01-12T08:46:12.179Z,8.81
2023-01-12T08:48:42.444Z,8.59
2023-01-12T08:51:12.356Z,8.84
2023-01-12T08:53:44.650Z,8.86
2023-01-12T08:56:14.449Z,8.93
2023-01-12T08:58:44.200Z,8.81
2023-01-12T09:01:17.010Z,8.94
2023-01-12T09:03:48.732Z,8.85
2023-01-12T09:06:20.667Z,8.99
2023-01-12T09:08:56.534Z,9.22
2023-01-12T09:11:29.382Z,9.01
2023-01-12T09:13:59.654Z,9.09
2023-01-12T09:16:30.750Z,8.97
2023-01-12T09:19:00.836Z,9.02
2023-01-12T09:21:32.380Z,9.00
2023-01-12T09:24:04.649Z,9.04
2023-01-12T09:26:40.270Z,8.90
2023-01-12T09:29:10.734Z,8.87
2023-01-12T09:31:42.077Z,8.85
2023-01-12T09:34:11.871Z,9.02
2023-01-12T09:36:43.128Z,9.05
2023-01-12T09:39:27.317Z,9.09
2023-01-12T09:42:11.513Z,9.05
2023-01-12T09:44:56.059Z,8.97
2023-01-12T09:47:37.248Z,9.09
2023-01-12T09:50:12.029Z,9.14
2023-01-12T09:52:47.493Z,9.22
2023-01-12T09:55:23.242Z,9.34
2023-01-12T09:58:09.071Z,9.35
2023-01-12T10:00:38.852Z,9.49
2023-01-12T10:03:19.028Z,9.46
2023-01-12T10:05:51.220Z,9.49
2023-01-12T10:08:31.401Z,9.56
2023-01-12T10:11:13.243Z,9.58
2023-01-12T10:14:02.436Z,9.59
2023-01-12T10:16:41.880Z,9.63
2023-01-12T10:19:24.042Z,9.66
2023-01-12T10:21:56.291Z,9.69
2023-01-12T10:24:27.568Z,9.72
2023-01-12T10:27:05.137Z,9.68
2023-01-12T10:29:35.239Z,9.73
2023-01-12T10:32:05.009Z,9.77
2023-01-12T10:34:52.850Z,9.81
2023-01-12T10:37:22.607Z,9.72
2023-01-12T10:39:55.032Z,9.77
2023-01-12T10:42:40.840Z,9.84
2023-01-12T10:45:20.823Z,9.77
2023-01-12T10:47:53.638Z,10.01
2023-01-12T10:50:27.375Z,9.84
2023-01-12T10:53:02.582Z,10.02
2023-01-12T10:55:35.156Z,9.98
2023-01-12T10:58:07.491Z,9.98
2023-01-12T11:00:37.975Z,9.94
2023-01-12T11:03:32.947Z,10.15
2023-01-12T11:06:27.756Z,10.08
2023-01-12T11:08:58.221Z,9.98
2023-01-12T11:11:33.884Z,10.16
2023-01-12T11:14:09.047Z,10.21
2023-01-12T11:16:45.261Z,10.27
2023-01-12T11:19:21.719Z,10.35
2023-01-12T11:21:56.859Z,10.33
2023-01-12T11:24:36.895Z,10.32
2023-01-12T11:27:16.346Z,10.45
2023-01-12T11:29:57.342Z,10.63
2023-01-12T11:32:34.979Z,10.63
2023-01-12T11:35:11.387Z,10.80
2023-01-12T11:37:43.635Z,10.72
2023-01-12T11:40:28.424Z,10.67
2023-01-12T11:43:14.158Z,10.72
2023-01-12T11:45:54.799Z,10.86
2023-01-12T11:48:30.767Z,10.85
2023-01-12T11:51:02.053Z,10.83
2023-01-12T11:53:31.857Z,10.48
2023-01-12T11:56:17.304Z,10.71
2023-01-12T11:58:57.960Z,10.83
2023-01-12T12:01:38.725Z,10.65
2023-01-12T12:04:18.125Z,10.53
2023-01-12T12:07:05.426Z,10.84
2023-01-12T12:09:49.008Z,10.75
2023-01-12T12:12:29.207Z,10.77
2023-01-12T12:15:14.293Z,10.53
2023-01-12T12:17:59.592Z,10.74
2023-01-12T12:20:36.374Z,10.68
2023-01-12T12:23:22.724Z,10.90
2023-01-12T12:26:00.417Z,10.87
2023-01-12T12:28:45.656Z,10.76
2023-01-12T12:31:29.156Z,10.80
2023-01-12T12:34:26.913Z,10.75
2023-01-12T12:37:02.739Z,10.94
2023-01-12T12:39:40.323Z,10.79
2023-01-12T12:42:35.875Z,10.84
2023-01-12T12:45:19.314Z,10.83
2023-01-12T12:48:06.399Z,10.92
2023-01-12T12:50:44.159Z,10.96
2023-01-12T12:53:19.028Z,11.01
2023-01-12T12:55:51.752Z,10.91
2023-01-12T12:58:45.891Z,11.12
2023-01-12T13:01:43.439Z,11.02
2023-01-12T13:04:15.500Z,11.10
2023-01-12T13:06:50.679Z,11.09
2023-01-12T13:09:36.808Z,10.92
2023-01-12T13:12:38.196Z,11.14
2023-01-12T13:15:22.601Z,10.88
2023-01-12T13:17:55.461Z,11.14
2023-01-12T13:20:56.569Z,11.14
2023-01-12T13:23:52.286Z,11.16
2023-01-12T13:26:40.745Z,11.15
2023-01-12T13:29:49.379Z,11.19
2023-01-12T13:32:44.527Z,11.26
2023-01-12T13:35:47.106Z,11.25
2023-01-12T13:38:22.595Z,11.14
2023-01-12T13:40:55.609Z,11.28
2023-01-12T13:43:27.557Z,11.25
2023-01-12T13:46:00.636Z,11.15
2023-01-12T13:48:32.691Z,10.95
2023-01-12T13:51:07.747Z,11.21
2023-01-12T13:53:37.437Z,11.24
2023-01-12T13:56:21.398Z,11.23
2023-01-12T13:58:54.006Z,11.18
2023-01-12T14:01:29.213Z,11.10
2023-01-12T14:04:20.044Z,11.25
2023-01-12T14:07:01.642Z,11.14
2023-01-12T14:09:40.845Z,11.13
2023-01-12T14:12:30.572Z,11.16
2023-01-12T14:15:38.142Z,11.26
2023-01-12T14:18:09.951Z,11.24
2023-01-12T14:20:46.716Z,11.27
2023-01-12T14:23:23.556Z,11.24
2023-01-12T14:26:16.713Z,11.15
2023-01-12T14:28:51.264Z,11.19
2023-01-12T14:31:27.421Z,10.76
2023-01-12T14:33:59.336Z,11.09
2023-01-12T14:36:32.300Z,11.12
2023-01-12T14:39:02.971Z,11.13
2023-01-12T14:41:45.886Z,11.14
2023-01-12T14:44:36.081Z,11.07
2023-01-12T14:47:06.083Z,10.78
2023-01-12T14:49:37.742Z,10.58
2023-01-12T14:52:28.520Z,11.19
2023-01-12T14:54:58.257Z,10.87
2023-01-12T14:57:35.031Z,10.88
2023-01-12T15:00:08.873Z,10.79
2023-01-12T15:02:41.200Z,11.06
2023-01-12T15:05:22.569Z,10.92
2023-01-12T15:07:58.247Z,10.90
2023-01-12T15:10:33.563Z,10.78
2023-01-12T15:13:27.801Z,11.16
2023-01-12T15:16:13.101Z,11.22
2023-01-12T15:18:55.559Z,11.19
2023-01-12T15:21:38.136Z,11.11
2023-01-12T15:24:33.641Z,11.15
2023-01-12T15:27:06.743Z,11.18
2023-01-12T15:29:36.765Z,11.02
2023-01-12T15:32:16.753Z,10.97
2023-01-12T15:34:46.524Z,11.10
2023-01-12T15:37:18.458Z,10.52
2023-01-12T15:39:48.976Z,10.76
2023-01-12T15:42:22.158Z,10.99
2023-01-12T15:44:53.914Z,10.82
2023-01-12T15:47:26.647Z,11.08
2023-01-12T15:49:56.374Z,10.66
2023-01-12T15:52:28.038Z,10.97
2023-01-12T15:54:58.740Z,11.10
2023-01-12T15:57:28.447Z,11.19
2023-01-12T15:59:58.410Z,11.02
2023-01-12T16:02:36.395Z,10.52
2023-01-12T16:05:07.241Z,10.52
2023-01-12T16:07:37.324Z,10.44
2023-01-12T16:10:08.001Z,10.91
2023-01-12T16:12:37.910Z,11.10
2023-01-12T16:15:09.993Z,10.98
2023-01-12T16:17:42.653Z,11.24
2023-01-12T16:20:13.888Z,11.31
2023-01-12T16:22:43.885Z,11.28
2023-01-12T16:25:14.660Z,11.21
2023-01-12T16:27:44.697Z,11.34
2023-01-12T16:30:17.830Z,10.71
2023-01-12T16:32:50.420Z,11.09
2023-01-12T16:35:21.023Z,10.50
2023-01-12T16:37:56.195Z,10.98
2023-01-12T16:40:26.015Z,11.20
2023-01-12T16:42:55.708Z,11.31
2023-01-12T16:45:25.590Z,10.98
2023-01-12T16:48:01.197Z,11.19
2023-01-12T16:50:31.051Z,11.30
2023-01-12T16:53:00.804Z,11.29
2023-01-12T16:55:30.628Z,11.08
2023-01-12T16:58:00.462Z,11.21
2023-01-12T17:00:32.530Z,11.22
2023-01-12T17:03:05.773Z,10.99
2023-01-12T17:05:35.597Z,11.15
2023-01-12T17:09:43.665Z,11.01
2023-01-12T17:12:13.615Z,10.71
2023-01-12T17:14:43.424Z,11.18
2023-01-12T17:17:14.967Z,11.17
2023-01-12T17:19:46.505Z,11.19
2023-01-12T17:22:16.404Z,11.20
2023-01-12T17:24:49.226Z,11.08
2023-01-12T17:27:20.129Z,11.14
2023-01-12T17:29:50.530Z,11.11
2023-01-12T17:32:20.531Z,11.13
2023-01-12T17:34:50.815Z,11.06
2023-01-12T17:37:20.491Z,11.14
2023-01-12T17:39:53.117Z,11.10
2023-01-12T17:42:35.615Z,11.18
2023-01-12T17:45:06.758Z,10.69
2023-01-12T17:47:36.468Z,10.96
2023-01-12T17:50:06.474Z,10.99
2023-01-12T17:52:36.138Z,11.07
2023-01-12T17:55:09.737Z,10.93
2023-01-12T17:57:39.406Z,10.98
2023-01-12T18:00:15.495Z,11.04
2023-01-12T18:02:45.648Z,11.06
2023-01-12T18:05:15.300Z,10.99
2023-01-12T18:07:45.008Z,10.91
2023-01-12T18:10:17.523Z,11.02
2023-01-12T18:12:47.141Z,10.71
2023-01-12T18:15:16.836Z,11.14
2023-01-12T18:17:46.795Z,11.01
2023-01-12T18:20:16.880Z,10.94
2023-01-12T18:22:47.716Z,11.13
2023-01-12T18:25:20.499Z,11.05
2023-01-12T18:27:50.360Z,10.79
2023-01-12T18:30:21.053Z,10.79
2023-01-12T18:32:50.766Z,10.93
2023-01-12T18:35:21.016Z,10.97
2023-01-12T18:37:51.037Z,10.91
2023-01-12T18:40:23.467Z,10.96
2023-01-12T18:42:50.812Z,11.08
2023-01-12T18:45:21.053Z,11.02
2023-01-12T18:48:03.614Z,11.14
2023-01-12T18:50:46.067Z,11.03
2023-01-12T18:53:31.049Z,11.06
2023-01-12T18:56:06.015Z,11.05
2023-01-12T18:58:39.242Z,11.07
2023-01-12T19:01:09.648Z,10.97
2023-01-12T19:03:39.415Z,11.05
2023-01-12T19:06:22.412Z,11.16
2023-01-12T19:09:05.707Z,10.93
2023-01-12T19:11:38.058Z,11.05
2023-01-12T19:14:20.814Z,11.01
2023-01-12T19:17:02.947Z,10.94
2023-01-12T19:19:34.921Z,10.53
2023-01-12T19:22:17.514Z,10.98
2023-01-12T19:24:59.657Z,10.99
2023-01-12T19:27:44.428Z,10.97
2023-01-12T19:30:15.236Z,10.90
2023-01-12T19:32:45.178Z,10.95
2023-01-12T19:35:14.836Z,10.81
2023-01-12T19:37:49.507Z,10.90
2023-01-12T19:40:26.405Z,11.01
2023-01-12T19:43:12.974Z,10.94
2023-01-12T19:45:44.038Z,10.78
2023-01-12T19:48:16.362Z,11.05
2023-01-12T19:50:46.765Z,11.04
2023-01-12T19:53:19.156Z,11.01
2023-01-12T19:55:51.109Z,10.82
2023-01-12T19:58:25.078Z,11.09
2023-01-12T20:00:55.999Z,11.10
2023-01-12T20:03:26.899Z,11.11
2023-01-12T20:05:56.728Z,10.91
2023-01-12T20:08:28.031Z,11.11
2023-01-12T20:10:59.425Z,11.10
2023-01-12T20:13:32.697Z,10.77
2023-01-12T20:16:07.516Z,11.15
2023-01-12T20:18:37.392Z,10.89
2023-01-12T20:21:11.820Z,11.12
2023-01-12T20:23:41.810Z,10.78
2023-01-12T20:26:13.300Z,11.00
2023-01-12T20:28:45.863Z,11.08
2023-01-12T20:31:20.430Z,11.15
2023-01-12T20:33:50.683Z,10.88
2023-01-12T20:36:21.136Z,11.15
2023-01-12T20:38:51.527Z,10.96
2023-01-12T20:41:22.570Z,11.14
2023-01-12T20:43:54.854Z,10.44
2023-01-12T20:46:25.187Z,11.08
2023-01-12T20:48:54.896Z,10.79
2023-01-12T20:51:25.267Z,10.81
2023-01-12T20:53:55.183Z,10.96
2023-01-12T20:56:25.980Z,11.08
2023-01-12T20:58:59.688Z,11.12
2023-01-12T21:01:30.001Z,10.52
2023-01-12T21:03:59.767Z,11.20
2023-01-12T21:06:29.565Z,11.32
2023-01-12T21:08:59.199Z,11.22
2023-01-12T21:11:28.950Z,11.32
2023-01-12T21:14:01.588Z,11.37
2023-01-12T21:16:31.486Z,11.38
2023-01-12T21:19:02.487Z,11.22
2023-01-12T21:21:32.369Z,10.82
2023-01-12T21:24:02.273Z,11.24
2023-01-12T21:26:32.485Z,11.19
2023-01-12T21:29:05.150Z,11.19
2023-01-12T21:31:35.423Z,11.04
2023-01-12T21:34:05.330Z,11.20
2023-01-12T21:36:35.187Z,11.17
2023-01-12T21:39:04.966Z,11.15
2023-01-12T21:41:55.083Z,11.09
2023-01-12T21:44:27.670Z,11.10
2023-01-12T21:46:57.444Z,11.09
2023-01-12T21:49:27.078Z,11.08
2023-01-12T21:51:56.935Z,11.21
2023-01-12T21:54:26.679Z,11.25
2023-01-12T21:56:56.349Z,11.30
2023-01-12T21:59:28.630Z,11.17
2023-01-12T22:01:58.372Z,11.31
2023-01-12T22:04:28.163Z,11.29
2023-01-12T22:06:57.894Z,11.19
2023-01-12T22:09:29.636Z,11.20
2023-01-12T22:11:59.376Z,11.22
2023-01-12T22:14:31.657Z,11.13
2023-01-12T22:17:01.346Z,11.17
2023-01-12T22:19:31.550Z,11.20
2023-01-12T22:22:01.441Z,11.02
2023-01-12T22:24:31.068Z,11.07
2023-01-12T22:27:02.149Z,11.23
2023-01-12T22:29:34.471Z,11.15
2023-01-12T22:32:04.193Z,11.28
2023-01-12T22:34:33.986Z,11.00
2023-01-12T22:37:03.690Z,10.90
2023-01-12T22:39:33.385Z,11.01
2023-01-12T22:42:03.265Z,11.20
2023-01-12T22:44:35.517Z,11.23
2023-01-12T22:47:05.195Z,11.15
2023-01-12T22:49:35.560Z,11.27
2023-01-12T22:52:05.604Z,11.15
2023-01-12T22:54:35.251Z,11.18
2023-01-12T22:57:06.644Z,11.09
2023-01-12T22:59:38.908Z,11.26
2023-01-12T23:02:29.115Z,11.23
2023-01-12T23:04:59.090Z,11.19
2023-01-12T23:07:29.456Z,11.19
2023-01-12T23:09:59.353Z,11.20
2023-01-12T23:12:29.278Z,11.06
2023-01-12T23:15:01.842Z,11.18
2023-01-12T23:17:33.175Z,11.09
2023-01-12T23:20:03.106Z,11.19
2023-01-12T23:22:33.557Z,11.20
2023-01-12T23:25:04.281Z,11.09
2023-01-12T23:27:34.186Z,11.15
2023-01-12T23:30:07.575Z,11.21
2023-01-12T23:32:37.515Z,11.04
2023-01-12T23:35:08.276Z,11.10
2023-01-12T23:37:38.069Z,11.28
2023-01-12T23:40:09.362Z,11.21
2023-01-12T23:42:39.323Z,11.11
2023-01-12T23:45:13.309Z,11.16
2023-01-12T23:47:43.659Z,11.18
2023-01-12T23:50:15.226Z,11.29
2023-01-12T23:52:45.110Z,11.30
2023-01-12T23:55:15.027Z,11.12
2023-01-12T23:57:45.447Z,11.17
